South Ashfield, Massachusetts
Current Conditions -  °F | °C
As of 1:52 AM on Friday 28 Nov 2014 (Local Time) from KAQW Reporting Station
Overcast Overcast  
Wind Chill: 25°   Ceiling: 1400
Heat Index: 25°   Visibility: 10mi
Dew Point: 23°   Wind: 3mph
Humidity: 92%   Direction: 260°W
Pressure: 30.01"   Gusts: NA
Location:  42.5227°N, 72.8242°W
Report Text: KAQW 280652Z AUTO 26003KT 10SM OVC014 M04/M05 A3001 RMK AO2 SLP170 T10391050 FZRANO $
Loading
Personal Weather Stations






























Interactive Weather Map New forecast layout! Learn more

10-Day Weather Forecast

Advertisements
Track Severe Weather on mobile